createdAt,value
2023-05-09T00:04:22.054Z,100937.03
2023-05-09T00:09:23.849Z,100936.06
2023-05-09T00:14:25.768Z,100941.03
2023-05-09T00:19:27.718Z,100940.94
2023-05-09T00:24:29.541Z,100945.16
2023-05-09T00:29:31.432Z,100942.38
2023-05-09T00:34:33.406Z,100949.25
2023-05-09T00:39:35.252Z,100952.63
2023-05-09T00:44:37.250Z,100953.41
2023-05-09T00:49:39.098Z,100948.97
2023-05-09T00:54:40.958Z,100951.41
2023-05-09T00:59:42.794Z,100949.63
2023-05-09T01:04:45.710Z,100958.34
2023-05-09T01:09:59.468Z,100958.25
2023-05-09T01:15:06.640Z,100952.25
2023-05-09T01:20:40.635Z,100951.41
2023-05-09T01:25:44.601Z,100945.22
2023-05-09T01:30:46.927Z,100948.69
2023-05-09T01:35:51.464Z,100946.94
2023-05-09T01:40:54.555Z,100954.03
2023-05-09T01:45:56.475Z,100955.75
2023-05-09T01:50:58.365Z,100961.84
2023-05-09T01:56:00.264Z,100955.88
2023-05-09T02:01:02.200Z,100960.25
2023-05-09T02:06:04.279Z,100961.16
2023-05-09T02:11:06.098Z,100967.28
2023-05-09T02:16:08.076Z,100957.19
2023-05-09T02:21:10.138Z,100954.41
2023-05-09T02:26:12.090Z,100954.41
2023-05-09T02:31:14.279Z,100947.88
2023-05-09T02:36:16.180Z,100950.13
2023-05-09T02:41:18.069Z,100942.91
2023-05-09T02:46:20.300Z,100944.09
2023-05-09T02:51:22.227Z,100939.81
2023-05-09T02:56:24.023Z,100937.56
2023-05-09T03:01:25.958Z,100933.31
2023-05-09T03:06:27.861Z,100938.84
2023-05-09T03:11:29.772Z,100932.44
2023-05-09T03:16:31.789Z,100930.94
2023-05-09T03:21:33.754Z,100936.78
2023-05-09T03:26:35.627Z,100940.78
2023-05-09T03:31:37.657Z,100934.13
2023-05-09T03:36:39.692Z,100928.81
2023-05-09T03:41:41.276Z,100925.97
2023-05-09T03:46:43.202Z,100926.19
2023-05-09T03:51:45.084Z,100932.38
2023-05-09T03:56:46.946Z,100929.16
2023-05-09T04:01:48.927Z,100936.25
2023-05-09T04:06:50.773Z,100936.97
2023-05-09T04:11:52.606Z,100931.38
2023-05-09T04:16:54.560Z,100928.25
2023-05-09T04:21:56.466Z,100936.41
2023-05-09T04:26:58.368Z,100937.28
2023-05-09T04:32:00.394Z,100932.88
2023-05-09T04:37:02.321Z,100939.75
2023-05-09T04:42:04.460Z,100955.66
2023-05-09T04:47:06.330Z,100950.38
2023-05-09T04:52:08.196Z,100935.59
2023-05-09T04:57:17.958Z,100930.19
2023-05-09T05:02:20.710Z,100930.34
2023-05-09T05:07:22.672Z,100928.88
2023-05-09T05:12:24.533Z,100924.22
2023-05-09T05:17:26.535Z,100926.69
2023-05-09T05:22:29.468Z,100927.13
2023-05-09T05:27:32.226Z,100922.47
2023-05-09T05:32:34.109Z,100920.00
2023-05-09T05:37:36.039Z,100912.28
2023-05-09T05:42:37.888Z,100908.94
2023-05-09T05:47:39.773Z,100909.84
2023-05-09T05:52:42.346Z,100909.06
2023-05-09T05:57:44.228Z,100909.50
2023-05-09T06:02:46.171Z,100901.88
2023-05-09T06:07:48.179Z,100900.19
2023-05-09T06:12:50.195Z,100900.72
2023-05-09T06:17:52.039Z,100892.59
2023-05-09T06:22:54.048Z,100889.28
2023-05-09T06:27:55.863Z,100892.09
2023-05-09T06:32:57.774Z,100875.66
2023-05-09T06:37:59.685Z,100877.91
2023-05-09T06:43:01.536Z,100875.91
2023-05-09T06:48:03.564Z,100885.31
2023-05-09T06:53:05.568Z,100867.41
2023-05-09T06:58:07.426Z,100871.47
2023-05-09T07:03:09.623Z,100863.72
2023-05-09T07:08:11.548Z,100871.28
2023-05-09T07:13:13.480Z,100860.03
2023-05-09T07:18:15.467Z,100848.34
2023-05-09T07:23:17.463Z,100859.72
2023-05-09T07:28:19.333Z,100856.28
2023-05-09T07:33:21.189Z,100849.94
2023-05-09T07:38:23.035Z,100831.59
2023-05-09T07:43:24.976Z,100849.94
2023-05-09T07:48:26.943Z,100862.19
2023-05-09T07:53:28.933Z,100825.16
2023-05-09T07:58:30.840Z,100829.41
2023-05-09T08:03:32.980Z,100849.38
2023-05-09T08:08:35.543Z,100844.16
2023-05-09T08:13:38.516Z,100839.19
2023-05-09T08:18:40.240Z,100839.56
2023-05-09T08:23:42.059Z,100841.88
2023-05-09T08:28:43.914Z,100832.38
2023-05-09T08:33:45.789Z,100829.44
2023-05-09T08:38:47.740Z,100828.41
2023-05-09T08:43:49.756Z,100817.06
2023-05-09T08:48:51.647Z,100807.19
2023-05-09T08:53:53.589Z,100807.13
2023-05-09T08:58:55.634Z,100801.28
2023-05-09T09:03:57.600Z,100796.41
2023-05-09T09:08:59.560Z,100794.66
2023-05-09T09:14:02.555Z,100789.78
2023-05-09T09:19:04.461Z,100784.34
2023-05-09T09:24:06.467Z,100781.00
2023-05-09T09:29:08.369Z,100776.38
2023-05-09T09:34:10.237Z,100777.38
2023-05-09T09:39:12.125Z,100785.78
2023-05-09T09:44:18.308Z,100775.47
2023-05-09T09:49:23.765Z,100776.06
2023-05-09T09:54:28.563Z,100766.91
2023-05-09T09:59:30.448Z,100760.34
2023-05-09T10:04:35.580Z,100754.38
2023-05-09T10:09:37.527Z,100749.59
2023-05-09T10:14:39.387Z,100755.50
2023-05-09T10:19:45.832Z,100752.28
2023-05-09T10:24:51.151Z,100752.56
2023-05-09T10:30:02.032Z,100742.91
2023-05-09T10:35:08.271Z,100750.38
2023-05-09T10:40:10.603Z,100740.78
2023-05-09T10:45:12.940Z,100742.03
2023-05-09T10:50:16.203Z,100744.09
2023-05-09T10:55:18.120Z,100744.09
2023-05-09T11:00:24.820Z,100732.00
2023-05-09T11:05:26.746Z,100724.06
2023-05-09T11:10:28.647Z,100709.06
2023-05-09T11:15:30.536Z,100704.66
2023-05-09T11:20:34.599Z,100691.84
2023-05-09T11:25:36.637Z,100677.63
2023-05-09T11:30:39.138Z,100670.41
2023-05-09T11:35:41.610Z,100675.13
2023-05-09T11:40:43.307Z,100663.50
2023-05-09T11:45:45.169Z,100661.31
2023-05-09T11:50:47.586Z,100645.63
2023-05-09T11:55:49.178Z,100650.84
2023-05-09T12:00:51.064Z,100645.28
2023-05-09T12:05:54.514Z,100648.38
2023-05-09T12:11:07.429Z,100637.38
2023-05-09T12:16:09.402Z,100635.44
2023-05-09T12:21:11.328Z,100625.31
2023-05-09T12:26:13.237Z,100623.97
2023-05-09T12:31:15.225Z,100628.06
2023-05-09T12:36:17.290Z,100620.09
2023-05-09T12:41:33.841Z,100617.59
2023-05-09T12:46:37.730Z,100615.19
2023-05-09T12:51:47.634Z,100612.50
2023-05-09T12:56:49.629Z,100600.97
2023-05-09T13:01:56.119Z,100596.13
2023-05-09T13:06:58.350Z,100580.97
2023-05-09T13:12:00.144Z,100575.75
2023-05-09T13:17:02.174Z,100568.44
2023-05-09T13:22:04.134Z,100570.16
2023-05-09T13:27:05.997Z,100563.22
2023-05-09T13:32:07.882Z,100561.06
2023-05-09T13:37:09.862Z,100546.28
2023-05-09T13:42:11.741Z,100536.03
2023-05-09T13:47:13.588Z,100539.78
2023-05-09T13:52:15.925Z,100535.38
2023-05-09T13:57:17.646Z,100532.31
2023-05-09T14:02:19.586Z,100531.28
2023-05-09T14:07:21.450Z,100518.44
2023-05-09T14:12:23.336Z,100519.50
2023-05-09T14:17:25.254Z,100513.09
2023-05-09T14:22:27.171Z,100519.63
2023-05-09T14:27:29.037Z,100514.06
2023-05-09T14:32:30.864Z,100494.72
2023-05-09T14:37:33.157Z,100494.41
2023-05-09T14:42:34.958Z,100487.88
2023-05-09T14:47:36.847Z,100485.75
2023-05-09T14:52:38.755Z,100485.69
2023-05-09T14:57:40.634Z,100488.50
2023-05-09T15:02:42.621Z,100488.22
2023-05-09T15:07:44.475Z,100475.19
2023-05-09T15:12:46.453Z,100481.47
2023-05-09T15:17:48.258Z,100483.41
2023-05-09T15:22:50.739Z,100480.34
2023-05-09T15:27:52.595Z,100478.06
2023-05-09T15:32:54.451Z,100468.41
2023-05-09T15:37:56.355Z,100461.25
2023-05-09T15:42:58.288Z,100459.44
2023-05-09T15:48:00.260Z,100453.00
2023-05-09T15:53:02.304Z,100456.13
2023-05-09T15:58:04.219Z,100457.22
2023-05-09T16:03:06.185Z,100447.09
2023-05-09T16:08:08.089Z,100447.19
2023-05-09T16:13:10.375Z,100444.00
2023-05-09T16:18:12.297Z,100439.78
2023-05-09T16:23:14.240Z,100428.50
2023-05-09T16:28:16.167Z,100438.59
2023-05-09T16:33:18.063Z,100432.16
2023-05-09T16:38:19.983Z,100434.41
2023-05-09T16:43:21.997Z,100432.50
2023-05-09T16:48:23.984Z,100438.53
2023-05-09T16:53:27.681Z,100437.56
2023-05-09T16:58:29.879Z,100437.38
2023-05-09T17:03:31.802Z,100440.50
2023-05-09T17:08:33.717Z,100440.09
2023-05-09T17:13:35.661Z,100446.75
2023-05-09T17:18:38.390Z,100440.94
2023-05-09T17:23:40.481Z,100448.34
2023-05-09T17:28:42.346Z,100455.72
2023-05-09T17:33:44.342Z,100457.66
2023-05-09T17:38:46.159Z,100457.88
2023-05-09T17:43:48.103Z,100456.25
2023-05-09T17:48:49.921Z,100456.47
2023-05-09T17:53:51.738Z,100458.47
2023-05-09T17:58:53.768Z,100460.44
2023-05-09T18:03:55.885Z,100463.28
2023-05-09T18:08:57.820Z,100461.72
2023-05-09T18:13:59.692Z,100452.19
2023-05-09T18:19:01.697Z,100451.38
2023-05-09T18:24:03.619Z,100449.72
2023-05-09T18:29:05.496Z,100450.69
2023-05-09T18:34:07.952Z,100450.78
2023-05-09T18:39:10.080Z,100451.78
2023-05-09T18:44:11.984Z,100446.56
2023-05-09T18:49:13.890Z,100446.59
2023-05-09T18:54:15.730Z,100445.72
2023-05-09T18:59:17.600Z,100451.84
2023-05-09T19:04:19.846Z,100452.69
2023-05-09T19:09:21.985Z,100457.75
2023-05-09T19:14:23.977Z,100455.88
2023-05-09T19:19:25.925Z,100459.38
2023-05-09T19:24:27.995Z,100451.63
2023-05-09T19:29:30.110Z,100455.09
2023-05-09T19:34:32.168Z,100455.97
2023-05-09T19:39:34.060Z,100448.88
2023-05-09T19:44:36.173Z,100443.69
2023-05-09T19:49:38.161Z,100444.56
2023-05-09T19:54:40.069Z,100438.59
2023-05-09T19:59:42.001Z,100442.19
2023-05-09T20:04:44.949Z,100440.56
2023-05-09T20:09:46.931Z,100440.59
2023-05-09T20:14:48.858Z,100445.84
2023-05-09T20:19:50.785Z,100440.56
2023-05-09T20:24:52.830Z,100438.97
2023-05-09T20:29:54.781Z,100437.50
2023-05-09T20:34:56.674Z,100441.13
2023-05-09T20:39:58.574Z,100442.13
2023-05-09T20:45:00.542Z,100442.91
2023-05-09T20:50:02.512Z,100435.81
2023-05-09T20:55:06.056Z,100434.94
2023-05-09T21:00:08.543Z,100441.22
2023-05-09T21:05:11.077Z,100446.53
2023-05-09T21:10:13.446Z,100452.72
2023-05-09T21:15:15.657Z,100453.88
2023-05-09T21:20:17.969Z,100455.56
2023-05-09T21:25:20.122Z,100448.47
2023-05-09T21:30:22.004Z,100446.88
2023-05-09T21:35:24.023Z,100433.91
2023-05-09T21:40:26.061Z,100440.16
2023-05-09T21:45:28.017Z,100436.69
2023-05-09T21:50:29.943Z,100442.81
2023-05-09T21:55:31.843Z,100441.84
2023-05-09T22:00:33.788Z,100435.69
2023-05-09T22:05:35.676Z,100434.84
2023-05-09T22:10:37.644Z,100433.09
2023-05-09T22:15:39.689Z,100429.59
2023-05-09T22:20:41.686Z,100424.56
2023-05-09T22:25:43.648Z,100421.09
2023-05-09T22:30:45.537Z,100423.66
2023-05-09T22:35:47.353Z,100418.34
2023-05-09T22:40:49.280Z,100415.69
2023-05-09T22:45:51.257Z,100406.06
2023-05-09T22:50:53.111Z,100409.59
2023-05-09T22:55:54.974Z,100412.16
2023-05-09T23:00:56.997Z,100407.81
2023-05-09T23:05:58.970Z,100414.84
2023-05-09T23:11:00.919Z,100405.16
2023-05-09T23:16:02.925Z,100406.03
2023-05-09T23:21:05.062Z,100396.50
2023-05-09T23:26:06.970Z,100388.69
2023-05-09T23:31:10.191Z,100400.19
2023-05-09T23:36:12.191Z,100398.44
2023-05-09T23:41:14.075Z,100402.81
2023-05-09T23:46:16.165Z,100407.03
2023-05-09T23:51:18.210Z,100396.50
2023-05-09T23:56:20.931Z,100400.94
